Brora, United Kingdom
Current Conditions -  °F | °C
As of 2:50 AM on Sunday 25 Jan 2015 (Local Time) from EGQK Reporting Station
Broken Clouds Broken Clouds  
Wind Chill: 38°   Ceiling: 5000
Heat Index: 45°   Visibility: 6mi
Dew Point: 37°   Wind: 15mph
Humidity: 76%   Direction: 230°SW
Pressure: 30.03"   Gusts: NA
Location:  58.01°N, 3.85°W
Report Text: EGQK 250250Z AUTO 23013KT 9999 BKN050/// 07/03 Q1017 RERA
Loading
Personal Weather Stations






























Interactive Weather Map New forecast layout! Learn more

10-Day Weather Forecast

Advertisements
Track Severe Weather on mobile